createdAt,value
2022-12-23T00:00:35.000Z,1.3
2022-12-23T00:03:26.000Z,1.3
2022-12-23T00:06:59.000Z,1.6
2022-12-23T00:10:32.000Z,1.5
2022-12-23T00:14:04.000Z,1.4
2022-12-23T00:17:45.000Z,1.5
2022-12-23T00:21:18.000Z,1.4
2022-12-23T00:24:51.000Z,1.6
2022-12-23T00:28:23.000Z,1.7
2022-12-23T00:31:56.000Z,1.6
2022-12-23T00:35:29.000Z,1
2022-12-23T00:39:01.000Z,1.7
2022-12-23T00:41:52.000Z,3.9
2022-12-23T00:45:25.000Z,3.8
2022-12-23T00:48:58.000Z,3.8
2022-12-23T00:52:30.000Z,0.9
2022-12-23T00:56:03.000Z,2
2022-12-23T00:59:35.000Z,0.9
2022-12-23T01:03:08.000Z,0.9
2022-12-23T01:06:41.000Z,3.1
2022-12-23T01:10:14.000Z,3.4
2022-12-23T01:13:46.000Z,3
2022-12-23T01:17:19.000Z,2.9
2022-12-23T01:20:10.000Z,1.4
2022-12-23T01:23:43.000Z,1.2
2022-12-23T01:27:15.000Z,1
2022-12-23T01:30:48.000Z,0.9
2022-12-23T01:34:20.000Z,1
2022-12-23T01:38:01.000Z,1
2022-12-23T01:41:34.000Z,1.1
2022-12-23T01:45:07.000Z,1
2022-12-23T01:48:39.000Z,1.1
2022-12-23T01:52:12.000Z,1.1
2022-12-23T01:55:45.000Z,0.9
2022-12-23T01:58:36.000Z,1.1
2022-12-23T02:02:09.000Z,1.2
2022-12-23T02:05:42.000Z,1.2
2022-12-23T02:09:15.000Z,1.2
2022-12-23T02:12:47.000Z,1.4
2022-12-23T02:16:20.000Z,1.3
2022-12-23T02:19:53.000Z,1.1
2022-12-23T02:23:25.000Z,1.3
2022-12-23T02:26:58.000Z,1.2
2022-12-23T02:30:30.000Z,1.5
2022-12-23T02:34:03.000Z,1.5
2022-12-23T02:36:54.000Z,1.2
2022-12-23T02:40:27.000Z,1.3
2022-12-23T02:43:59.000Z,1.2
2022-12-23T02:47:32.000Z,1.3
2022-12-23T02:51:05.000Z,1.1
2022-12-23T02:54:37.000Z,1.1
2022-12-23T02:58:10.000Z,1
2022-12-23T03:01:43.000Z,1
2022-12-23T03:05:16.000Z,0.9
2022-12-23T03:08:49.000Z,1
2022-12-23T03:12:21.000Z,1
2022-12-23T03:15:12.000Z,1.1
2022-12-23T03:18:46.000Z,1.4
2022-12-23T03:22:18.000Z,1.7
2022-12-23T03:25:54.000Z,1.7
2022-12-23T03:29:27.000Z,1.9
2022-12-23T03:33:00.000Z,2
2022-12-23T03:36:32.000Z,1.9
2022-12-23T03:40:05.000Z,2.1
2022-12-23T03:43:38.000Z,2.1
2022-12-23T03:47:39.000Z,2.3
2022-12-23T03:51:11.000Z,2.4
2022-12-23T03:54:03.000Z,2.4
2022-12-23T03:57:35.000Z,2.1
2022-12-23T04:01:08.000Z,2
2022-12-23T04:04:43.000Z,1.7
2022-12-23T04:08:16.000Z,1.7
2022-12-23T04:11:49.000Z,1.7
2022-12-23T04:15:21.000Z,1.4
2022-12-23T04:18:54.000Z,1.4
2022-12-23T04:22:27.000Z,1.2
2022-12-23T04:25:59.000Z,1
2022-12-23T04:29:32.000Z,1
2022-12-23T04:32:24.000Z,0.9
2022-12-23T04:35:57.000Z,0.9
2022-12-23T04:39:29.000Z,1.4
2022-12-23T04:43:02.000Z,1.3
2022-12-23T04:46:34.000Z,1.1
2022-12-23T04:50:07.000Z,1.5
2022-12-23T04:53:40.000Z,1.2
2022-12-23T04:57:13.000Z,1.6
2022-12-23T05:00:45.000Z,1
2022-12-23T05:04:18.000Z,1
2022-12-23T05:07:51.000Z,1
2022-12-23T05:10:42.000Z,1.2
2022-12-23T05:14:15.000Z,1.1
2022-12-23T05:17:48.000Z,1.2
2022-12-23T05:21:20.000Z,1.1
2022-12-23T05:24:53.000Z,1.3
2022-12-23T05:28:25.000Z,1
2022-12-23T05:31:58.000Z,1.4
2022-12-23T05:35:31.000Z,1.1
2022-12-23T05:39:04.000Z,1
2022-12-23T05:42:36.000Z,0.8
2022-12-23T05:46:09.000Z,0.8
2022-12-23T05:49:07.000Z,0.8
2022-12-23T05:52:40.000Z,0.9
2022-12-23T05:56:13.000Z,0.7
2022-12-23T05:59:46.000Z,0.7
2022-12-23T06:03:18.000Z,0.8
2022-12-23T06:06:52.000Z,0.6
2022-12-23T06:10:24.000Z,0.7
2022-12-23T06:13:57.000Z,0.7
2022-12-23T06:17:29.000Z,0.7
2022-12-23T06:21:02.000Z,0.9
2022-12-23T06:24:35.000Z,0.9
2022-12-23T06:27:26.000Z,0.9
2022-12-23T06:30:58.000Z,1.1
2022-12-23T06:34:37.000Z,1
2022-12-23T06:38:10.000Z,1
2022-12-23T06:41:42.000Z,1
2022-12-23T06:45:15.000Z,0.7
2022-12-23T06:48:47.000Z,0.8
2022-12-23T06:52:20.000Z,0.9
2022-12-23T06:55:53.000Z,0.7
2022-12-23T06:59:25.000Z,1.1
2022-12-23T07:02:58.000Z,1.1
2022-12-23T07:05:50.000Z,1.1
2022-12-23T07:09:22.000Z,1.2
2022-12-23T07:12:55.000Z,1.1
2022-12-23T07:16:27.000Z,1.5
2022-12-23T07:20:00.000Z,1.4
2022-12-23T07:23:33.000Z,1.5
2022-12-23T07:27:05.000Z,1.7
2022-12-23T07:30:38.000Z,1.4
2022-12-23T07:34:11.000Z,1.3
2022-12-23T07:37:43.000Z,1
2022-12-23T07:41:16.000Z,1.3
2022-12-23T07:44:07.000Z,1.3
2022-12-23T07:47:40.000Z,1.4
2022-12-23T07:51:12.000Z,1.5
2022-12-23T07:54:45.000Z,1.3
2022-12-23T07:58:18.000Z,1.7
2022-12-23T08:01:51.000Z,1.7
2022-12-23T08:05:24.000Z,2.1
2022-12-23T08:08:56.000Z,1.9
2022-12-23T08:12:29.000Z,1.4
2022-12-23T08:16:02.000Z,1.7
2022-12-23T08:19:35.000Z,1.2
2022-12-23T08:22:26.000Z,1.4
2022-12-23T08:25:58.000Z,1.6
2022-12-23T08:29:31.000Z,1.7
2022-12-23T08:33:04.000Z,1.5
2022-12-23T08:36:37.000Z,1.4
2022-12-23T08:40:09.000Z,1.2
2022-12-23T08:43:42.000Z,1.2
2022-12-23T08:47:14.000Z,1.3
2022-12-23T08:50:48.000Z,1.3
2022-12-23T08:54:21.000Z,1.4
2022-12-23T08:57:54.000Z,1.3
2022-12-23T09:00:45.000Z,1
2022-12-23T09:04:18.000Z,1.1
2022-12-23T09:07:50.000Z,1
2022-12-23T09:11:23.000Z,0.8
2022-12-23T09:14:57.000Z,1.1
2022-12-23T09:18:29.000Z,1.1
2022-12-23T09:22:02.000Z,1.1
2022-12-23T09:25:35.000Z,1.2
2022-12-23T09:29:07.000Z,1.2
2022-12-23T09:32:40.000Z,2.1
2022-12-23T09:36:13.000Z,1.5
2022-12-23T09:39:04.000Z,1.2
2022-12-23T09:42:36.000Z,1.9
2022-12-23T09:46:09.000Z,1.4
2022-12-23T09:49:42.000Z,1.1
2022-12-23T09:53:14.000Z,1
2022-12-23T09:56:47.000Z,0.9
2022-12-23T10:00:20.000Z,0.9
2022-12-23T10:03:53.000Z,0.8
2022-12-23T10:07:25.000Z,1
2022-12-23T10:10:58.000Z,1.1
2022-12-23T10:14:38.000Z,1.1
2022-12-23T10:17:29.000Z,1.5
2022-12-23T10:21:02.000Z,1.2
2022-12-23T10:24:34.000Z,1
2022-12-23T10:28:07.000Z,0.9
2022-12-23T10:31:40.000Z,0.7
2022-12-23T10:35:13.000Z,0.7
2022-12-23T10:38:46.000Z,1.3
2022-12-23T10:42:19.000Z,1
2022-12-23T10:45:51.000Z,0.7
2022-12-23T10:49:24.000Z,0.9
2022-12-23T10:52:57.000Z,0.8
2022-12-23T10:55:48.000Z,1
2022-12-23T10:59:21.000Z,2.2
2022-12-23T11:02:53.000Z,2.6
2022-12-23T11:06:26.000Z,2.2
2022-12-23T11:10:03.000Z,2.3
2022-12-23T11:13:35.000Z,1.7
2022-12-23T11:17:08.000Z,1.8
2022-12-23T11:20:41.000Z,1.7
2022-12-23T11:24:13.000Z,1.9
2022-12-23T11:27:46.000Z,1.6
2022-12-23T11:31:19.000Z,1.9
2022-12-23T11:34:10.000Z,1.9
2022-12-23T11:37:43.000Z,2.3
2022-12-23T11:41:15.000Z,2.3
2022-12-23T11:44:53.000Z,4
2022-12-23T11:48:26.000Z,4.6
2022-12-23T11:51:59.000Z,5.3
2022-12-23T11:55:32.000Z,3.6
2022-12-23T11:59:04.000Z,3.4
2022-12-23T12:02:37.000Z,4.1
2022-12-23T12:06:10.000Z,3.6
2022-12-23T12:09:42.000Z,3.7
2022-12-23T12:12:33.000Z,3.1
2022-12-23T12:16:06.000Z,2.6
2022-12-23T12:19:39.000Z,2.7
2022-12-23T12:23:11.000Z,1.4
2022-12-23T12:26:44.000Z,1.4
2022-12-23T12:30:17.000Z,1.4
2022-12-23T12:33:51.000Z,1.6
2022-12-23T12:37:23.000Z,1.5
2022-12-23T12:40:56.000Z,1.6
2022-12-23T12:44:28.000Z,1.9
2022-12-23T12:48:02.000Z,1.4
2022-12-23T12:51:02.000Z,1.4
2022-12-23T12:54:35.000Z,1.5
2022-12-23T12:58:08.000Z,3.1
2022-12-23T13:01:40.000Z,2.1
2022-12-23T13:05:13.000Z,2.9
2022-12-23T13:08:46.000Z,2.7
2022-12-23T13:12:19.000Z,2.9
2022-12-23T13:15:52.000Z,2.5
2022-12-23T13:19:24.000Z,2.7
2022-12-23T13:22:57.000Z,2.5
2022-12-23T13:27:07.000Z,2.6
2022-12-23T13:29:58.000Z,2.9
2022-12-23T13:33:31.000Z,3
2022-12-23T13:37:03.000Z,2.6
2022-12-23T13:40:36.000Z,3.1
2022-12-23T13:44:08.000Z,4.7
2022-12-23T13:47:41.000Z,4.8
2022-12-23T13:51:14.000Z,4
2022-12-23T13:54:47.000Z,6.1
2022-12-23T13:58:19.000Z,5.7
2022-12-23T14:01:52.000Z,5
2022-12-23T14:05:24.000Z,4.7
2022-12-23T14:08:15.000Z,5
2022-12-23T14:11:48.000Z,7.6
2022-12-23T14:15:28.000Z,7.7
2022-12-23T14:19:00.000Z,10.5
2022-12-23T14:22:33.000Z,8.5
2022-12-23T14:26:06.000Z,7.6
2022-12-23T14:29:38.000Z,6.8
2022-12-23T14:33:11.000Z,6.5
2022-12-23T14:36:44.000Z,5.9
2022-12-23T14:40:17.000Z,6.5
2022-12-23T14:43:49.000Z,6.6
2022-12-23T14:46:40.000Z,7.9
2022-12-23T14:50:13.000Z,6.5
2022-12-23T14:53:46.000Z,6.6
2022-12-23T14:57:29.000Z,5.1
2022-12-23T15:01:02.000Z,4.1
2022-12-23T15:04:35.000Z,3.2
2022-12-23T15:08:08.000Z,2.9
2022-12-23T15:11:40.000Z,3.6
2022-12-23T15:15:13.000Z,4
2022-12-23T15:18:47.000Z,2.7
2022-12-23T15:22:19.000Z,2
2022-12-23T15:25:16.000Z,2.6
2022-12-23T15:29:16.000Z,2.7
2022-12-23T15:32:49.000Z,4.6
2022-12-23T15:36:21.000Z,3.1
2022-12-23T15:39:54.000Z,2
2022-12-23T15:43:38.000Z,1.9
2022-12-23T15:47:11.000Z,1.8
2022-12-23T15:50:44.000Z,2.2
2022-12-23T15:54:19.000Z,1.7
2022-12-23T15:57:52.000Z,1.8
2022-12-23T16:01:24.000Z,11.1
2022-12-23T16:04:16.000Z,23.7
2022-12-23T16:07:48.000Z,8.3
2022-12-23T16:11:21.000Z,4.2
2022-12-23T16:14:54.000Z,4
2022-12-23T16:18:26.000Z,3
2022-12-23T16:21:59.000Z,2.3
2022-12-23T16:25:32.000Z,1.7
2022-12-23T16:29:09.000Z,1.9
2022-12-23T16:32:41.000Z,1.4
2022-12-23T16:36:14.000Z,2.8
2022-12-23T16:39:50.000Z,2.2
2022-12-23T16:42:41.000Z,2.5
2022-12-23T16:46:14.000Z,2.1
2022-12-23T16:49:46.000Z,2.8
2022-12-23T16:53:19.000Z,2.3
2022-12-23T16:56:52.000Z,2.2
2022-12-23T17:00:24.000Z,2.7
2022-12-23T17:04:02.000Z,2.8
2022-12-23T17:07:35.000Z,3.1
2022-12-23T17:11:10.000Z,2
2022-12-23T17:14:43.000Z,1.6
2022-12-23T17:18:16.000Z,1
2022-12-23T17:21:07.000Z,0.9
2022-12-23T17:24:40.000Z,0.7
2022-12-23T17:28:13.000Z,0.7
2022-12-23T17:31:46.000Z,1.1
2022-12-23T17:35:19.000Z,1.5
2022-12-23T17:38:52.000Z,0.5
2022-12-23T17:42:25.000Z,1.3
2022-12-23T17:45:57.000Z,1
2022-12-23T17:49:30.000Z,1.1
2022-12-23T17:53:06.000Z,1.1
2022-12-23T17:56:39.000Z,1.1
2022-12-23T17:59:30.000Z,1.4
2022-12-23T18:03:03.000Z,1.5
2022-12-23T18:06:35.000Z,1.4
2022-12-23T18:10:08.000Z,1.5
2022-12-23T18:13:41.000Z,1.5
2022-12-23T18:17:13.000Z,1.7
2022-12-23T18:20:46.000Z,2.1
2022-12-23T18:24:18.000Z,1.9
2022-12-23T18:27:51.000Z,1.3
2022-12-23T18:31:24.000Z,1.6
2022-12-23T18:34:56.000Z,3.4
2022-12-23T18:37:47.000Z,4
2022-12-23T18:41:20.000Z,5.6
2022-12-23T18:44:53.000Z,4.3
2022-12-23T18:48:25.000Z,3.9
2022-12-23T18:51:58.000Z,2.4
2022-12-23T18:55:31.000Z,1.8
2022-12-23T18:59:03.000Z,1.7
2022-12-23T19:02:36.000Z,1.9
2022-12-23T19:06:09.000Z,2
2022-12-23T19:09:41.000Z,1.7
2022-12-23T19:13:14.000Z,2
2022-12-23T19:16:05.000Z,2.2
2022-12-23T19:19:38.000Z,1.8
2022-12-23T19:23:11.000Z,1.8
2022-12-23T19:27:04.000Z,1.9
2022-12-23T19:30:36.000Z,1.8
2022-12-23T19:34:09.000Z,1.7
2022-12-23T19:37:42.000Z,1.9
2022-12-23T19:41:15.000Z,1.9
2022-12-23T19:44:48.000Z,2.2
2022-12-23T19:48:21.000Z,2.1
2022-12-23T19:51:53.000Z,2.2
2022-12-23T19:54:44.000Z,2
2022-12-23T19:58:17.000Z,1.9
2022-12-23T20:01:50.000Z,2.2
2022-12-23T20:05:22.000Z,2
2022-12-23T20:08:55.000Z,2.3
2022-12-23T20:12:28.000Z,4.8
2022-12-23T20:16:00.000Z,3.8
2022-12-23T20:19:33.000Z,3.7
2022-12-23T20:23:11.000Z,3.3
2022-12-23T20:26:44.000Z,2.2
2022-12-23T20:30:16.000Z,2.3
2022-12-23T20:33:08.000Z,2.3
2022-12-23T20:36:40.000Z,2.8
2022-12-23T20:40:13.000Z,2.4
2022-12-23T20:43:45.000Z,2.7
2022-12-23T20:47:58.000Z,2.6
2022-12-23T20:51:31.000Z,2.5
2022-12-23T20:55:03.000Z,2.8
2022-12-23T20:58:36.000Z,2.5
2022-12-23T21:02:09.000Z,2.5
2022-12-23T21:05:41.000Z,2.7
2022-12-23T21:09:14.000Z,2.1
2022-12-23T21:12:05.000Z,2.1
2022-12-23T21:15:38.000Z,2.6
2022-12-23T21:19:11.000Z,2.7
2022-12-23T21:22:43.000Z,2.8
2022-12-23T21:26:16.000Z,2.6
2022-12-23T21:29:48.000Z,2.2
2022-12-23T21:33:21.000Z,2.2
2022-12-23T21:36:54.000Z,2.5
2022-12-23T21:40:26.000Z,2.1
2022-12-23T21:43:59.000Z,2.3
2022-12-23T21:47:32.000Z,2.9
2022-12-23T21:50:23.000Z,2.5
2022-12-23T21:53:55.000Z,2.4
2022-12-23T21:57:28.000Z,2.2
2022-12-23T22:01:00.000Z,2
2022-12-23T22:04:33.000Z,2.5
2022-12-23T22:08:09.000Z,2.7
2022-12-23T22:11:42.000Z,3.9
2022-12-23T22:15:14.000Z,2.8
2022-12-23T22:18:47.000Z,6.2
2022-12-23T22:22:20.000Z,3.9
2022-12-23T22:25:52.000Z,2.5
2022-12-23T22:28:43.000Z,2.4
2022-12-23T22:32:16.000Z,2.3
2022-12-23T22:35:49.000Z,2.6
2022-12-23T22:39:22.000Z,2.5
2022-12-23T22:42:54.000Z,2.8
2022-12-23T22:46:27.000Z,1.9
2022-12-23T22:50:00.000Z,2.4
2022-12-23T22:53:32.000Z,2.7
2022-12-23T22:57:05.000Z,3.6
2022-12-23T23:00:38.000Z,2.7
2022-12-23T23:04:11.000Z,3.5
2022-12-23T23:07:02.000Z,2.8
2022-12-23T23:10:34.000Z,2.8
2022-12-23T23:14:07.000Z,3.6
2022-12-23T23:17:40.000Z,3.3
2022-12-23T23:21:13.000Z,3.7
2022-12-23T23:24:45.000Z,3.1
2022-12-23T23:28:18.000Z,3.1
2022-12-23T23:31:50.000Z,2.9
2022-12-23T23:35:23.000Z,3
2022-12-23T23:38:56.000Z,3
2022-12-23T23:42:28.000Z,2.8
2022-12-23T23:45:20.000Z,2.6
2022-12-23T23:48:52.000Z,2.8
2022-12-23T23:52:25.000Z,2.6
2022-12-23T23:55:58.000Z,2.8
2022-12-23T23:59:30.000Z,3.2
